Wetterstation Oberdrees
Wetterdaten: aktuell Montag, 21.06.2021 00:55
Datum Zeit Temp. A. Feuchte A. Luftdruck Regen Wind Richtung Richtung Taupunkt Windchill Windben
21.06.2021 00:55 19,3 C 89 % 1005,2 hPa 0,0 l/m 2,3 km/h (1 Bft) W 268 17,4 C 19,3 C 4,8 km/h (1 Bft)
21.06.2021 00:50 19,4 C 89 % 1005,2 hPa 0,0 l/m 2,3 km/h (1 Bft) W-SW 256 17,5 C 19,4 C 4,8 km/h (1 Bft)
21.06.2021 00:45 19,4 C 89 % 1005,4 hPa 0,0 l/m 3,0 km/h (1 Bft) W 262 17,5 C 19,4 C 6,4 km/h (2 Bft)
21.06.2021 00:40 19,4 C 89 % 1005,3 hPa 0,0 l/m 3,7 km/h (1 Bft) W-NW 288 17,5 C 19,4 C 8,0 km/h (2 Bft)
21.06.2021 00:35 19,5 C 89 % 1005,5 hPa 0,0 l/m 3,3 km/h (1 Bft) W-SW 244 17,6 C 19,5 C 6,4 km/h (2 Bft)
21.06.2021 00:30 19,6 C 89 % 1005,6 hPa 0,0 l/m 4,9 km/h (1 Bft) W 267 17,7 C 19,6 C 11,3 km/h (2 Bft)
21.06.2021 00:25 19,6 C 89 % 1005,7 hPa 0,0 l/m 3,9 km/h (1 Bft) W-SW 240 17,7 C 19,6 C 6,4 km/h (2 Bft)
21.06.2021 00:20 19,7 C 89 % 1005,8 hPa 0,0 l/m 2,9 km/h (1 Bft) W-SW 252 17,8 C 19,7 C 6,4 km/h (2 Bft)
21.06.2021 00:15 19,6 C 88 % 1005,8 hPa 0,0 l/m 2,3 km/h (1 Bft) W 277 17,6 C 19,6 C 6,4 km/h (2 Bft)
21.06.2021 00:10 19,7 C 88 % 1005,7 hPa 0,0 l/m 2,3 km/h (1 Bft) W 265 17,7 C 19,7 C 4,8 km/h (1 Bft)
21.06.2021 00:05 19,7 C 89 % 1005,8 hPa 0,0 l/m 0,6 km/h (0 Bft) W 268 17,8 C 19,7 C 3,2 km/h (1 Bft)
21.06.2021 00:00 19,8 C 89 % 1005,8 hPa 0,0 l/m 0,0 km/h (0 Bft) W 268 17,9 C 19,8 C 0,0 km/h (0 Bft)
20.06.2021 23:55 19,8 C 89 % 1005,8 hPa 0,0 l/m 0,2 km/h (0 Bft) W 268 17,9 C 19,8 C 3,2 km/h (1 Bft)
20.06.2021 23:50 19,8 C 88 % 1005,9 hPa 0,0 l/m 0,2 km/h (0 Bft) W 269 17,8 C 19,8 C 1,6 km/h (1 Bft)
20.06.2021 23:45 19,8 C 88 % 1006,0 hPa 0,0 l/m 1,9 km/h (1 Bft) W 269 17,8 C 19,8 C 4,8 km/h (1 Bft)
20.06.2021 23:40 19,8 C 89 % 1006,1 hPa 0,0 l/m 2,3 km/h (1 Bft) W 263 17,9 C 19,8 C 4,8 km/h (1 Bft)
20.06.2021 23:35 19,9 C 89 % 1006,1 hPa 0,0 l/m 2,0 km/h (1 Bft) W-SW 252 18,0 C 19,9 C 3,2 km/h (1 Bft)
20.06.2021 23:30 19,9 C 88 % 1005,9 hPa 0,0 l/m 1,6 km/h (1 Bft) W-SW 251 17,8 C 19,9 C 4,8 km/h (1 Bft)
20.06.2021 23:25 19,9 C 88 % 1006,1 hPa 0,0 l/m 0,6 km/h (0 Bft) W 259 17,8 C 19,9 C 3,2 km/h (1 Bft)
20.06.2021 23:20 20,0 C 88 % 1006,3 hPa 0,0 l/m 1,0 km/h (0 Bft) W 259 17,9 C 20,0 C 4,8 km/h (1 Bft)
20.06.2021 23:15 20,1 C 87 % 1006,3 hPa 0,0 l/m 2,4 km/h (1 Bft) W-SW 254 17,9 C 20,1 C 4,8 km/h (1 Bft)
20.06.2021 23:10 20,2 C 87 % 1006,2 hPa 0,0 l/m 0,8 km/h (0 Bft) N-NW 345 18,0 C 20,2 C 4,8 km/h (1 Bft)
20.06.2021 23:05 20,5 C 86 % 1006,3 hPa 0,0 l/m 3,5 km/h (1 Bft) W 272 18,1 C 20,5 C 8,0 km/h (2 Bft)
20.06.2021 23:00 20,9 C 85 % 1006,7 hPa 0,0 l/m 6,5 km/h (2 Bft) W 265 18,3 C 20,9 C 12,9 km/h (3 Bft)
20.06.2021 22:55 21,4 C 84 % 1006,7 hPa 0,4 l/m 4,1 km/h (1 Bft) W 259 18,6 C 21,4 C 9,7 km/h (2 Bft)
20.06.2021 22:50 21,8 C 81 % 1006,6 hPa 0,0 l/m 2,8 km/h (1 Bft) SW 229 18,4 C 21,8 C 6,4 km/h (2 Bft)
20.06.2021 22:45 22,1 C 80 % 1006,6 hPa 0,0 l/m 0,9 km/h (0 Bft) W 262 18,5 C 22,1 C 4,8 km/h (1 Bft)
20.06.2021 22:40 22,3 C 80 % 1006,6 hPa 0,0 l/m 0,0 km/h (0 Bft) W-NW 294 18,7 C 22,3 C 0,0 km/h (0 Bft)
20.06.2021 22:35 22,3 C 77 % 1006,5 hPa 0,0 l/m 0,0 km/h (0 Bft) W-NW 296 18,1 C 22,3 C 0,0 km/h (0 Bft)
20.06.2021 22:30 22,3 C 76 % 1006,5 hPa 0,0 l/m 0,0 km/h (0 Bft) W-NW 299 17,9 C 22,3 C 0,0 km/h (0 Bft)
20.06.2021 22:25 22,4 C 75 % 1006,6 hPa 0,0 l/m 0,0 km/h (0 Bft) W-NW 299 17,7 C 22,4 C 0,0 km/h (0 Bft)
20.06.2021 22:20 22,5 C 75 % 1006,7 hPa 0,0 l/m 0,0 km/h (0 Bft) W-NW 299 17,8 C 22,5 C 0,0 km/h (0 Bft)
20.06.2021 22:15 22,6 C 75 % 1006,6 hPa 0,0 l/m 0,0 km/h (0 Bft) W-NW 299 17,9 C 22,6 C 0,0 km/h (0 Bft)
20.06.2021 22:10 22,7 C 75 % 1006,7 hPa 0,0 l/m 0,0 km/h (0 Bft) W-NW 299 18,0 C 22,7 C 0,0 km/h (0 Bft)
20.06.2021 22:05 22,8 C 74 % 1007,0 hPa 0,0 l/m 0,0 km/h (0 Bft) W-NW 299 17,9 C 22,8 C 0,0 km/h (0 Bft)
20.06.2021 22:00 22,9 C 73 % 1007,1 hPa 0,0 l/m 0,0 km/h (0 Bft) W-NW 299 17,8 C 22,9 C 0,0 km/h (0 Bft)
20.06.2021 21:55 23,0 C 73 % 1007,1 hPa 0,0 l/m 0,0 km/h (0 Bft) W-NW 299 17,9 C 23,0 C 0,0 km/h (0 Bft)
20.06.2021 21:50 23,1 C 74 % 1007,2 hPa 0,0 l/m 0,0 km/h (0 Bft) W-NW 299 18,2 C 23,1 C 0,0 km/h (0 Bft)
20.06.2021 21:45 23,3 C 74 % 1007,1 hPa 0,0 l/m 0,0 km/h (0 Bft) W-NW 299 18,4 C 23,3 C 0,0 km/h (0 Bft)
20.06.2021 21:40 23,4 C 73 % 1007,2 hPa 0,0 l/m 0,0 km/h (0 Bft) W-NW 299 18,3 C 23,4 C 0,0 km/h (0 Bft)
20.06.2021 21:35 23,6 C 72 % 1007,3 hPa 0,0 l/m 0,0 km/h (0 Bft) W-NW 300 18,2 C 23,6 C 0,0 km/h (0 Bft)
20.06.2021 21:30 23,8 C 72 % 1007,2 hPa 0,0 l/m 0,0 km/h (0 Bft) N-NO 26 18,4 C 23,8 C 1,6 km/h (1 Bft)
20.06.2021 21:25 23,9 C 70 % 1007,3 hPa 0,0 l/m 0,0 km/h (0 Bft) N-NO 33 18,1 C 23,9 C 0,0 km/h (0 Bft)
20.06.2021 21:20 24,0 C 67 % 1007,4 hPa 0,0 l/m 0,0 km/h (0 Bft) N-NO 33 17,5 C 24,0 C 0,0 km/h (0 Bft)
20.06.2021 21:15 24,1 C 66 % 1007,3 hPa 0,0 l/m 0,0 km/h (0 Bft) N-NO 33 17,3 C 24,1 C 0,0 km/h (0 Bft)
20.06.2021 21:10 24,3 C 66 % 1007,2 hPa 0,0 l/m 0,0 km/h (0 Bft) N-NO 33 17,5 C 24,3 C 0,0 km/h (0 Bft)
20.06.2021 21:05 24,3 C 66 % 1007,2 hPa 0,0 l/m 0,0 km/h (0 Bft) N-NO 33 17,5 C 24,3 C 0,0 km/h (0 Bft)
20.06.2021 21:00 24,3 C 65 % 1007,1 hPa 0,0 l/m 0,0 km/h (0 Bft) N-NO 33 17,3 C 24,3 C 0,0 km/h (0 Bft)
20.06.2021 20:55 24,3 C 65 % 1007,0 hPa 0,0 l/m 0,7 km/h (0 Bft) N-NO 33 17,3 C 24,3 C 3,2 km/h (1 Bft)
20.06.2021 20:50 24,3 C 64 % 1007,1 hPa 0,0 l/m 0,0 km/h (0 Bft) N-NO 31 17,0 C 24,3 C 0,0 km/h (0 Bft)
20.06.2021 20:45 24,4 C 65 % 1007,3 hPa 0,0 l/m 0,0 km/h (0 Bft) N-NO 31 17,4 C 24,4 C 0,0 km/h (0 Bft)
20.06.2021 20:40 24,5 C 65 % 1007,3 hPa 0,0 l/m 0,0 km/h (0 Bft) N-NO 31 17,5 C 24,5 C 0,0 km/h (0 Bft)
20.06.2021 20:35 24,5 C 64 % 1007,3 hPa 0,0 l/m 0,0 km/h (0 Bft) N-NO 31 17,2 C 24,5 C 0,0 km/h (0 Bft)
20.06.2021 20:30 24,6 C 63 % 1007,3 hPa 0,0 l/m 0,8 km/h (0 Bft) N-NO 31 17,1 C 24,6 C 3,2 km/h (1 Bft)
20.06.2021 20:25 24,6 C 64 % 1007,2 hPa 0,0 l/m 0,5 km/h (0 Bft) N-NO 31 17,3 C 24,6 C 3,2 km/h (1 Bft)
20.06.2021 20:20 24,6 C 64 % 1007,4 hPa 0,0 l/m 0,1 km/h (0 Bft) N-NO 32 17,3 C 24,6 C 1,6 km/h (1 Bft)
20.06.2021 20:15 24,7 C 65 % 1007,5 hPa 0,0 l/m 0,1 km/h (0 Bft) N-NO 32 17,7 C 24,7 C 3,2 km/h (1 Bft)
20.06.2021 20:10 24,7 C 64 % 1007,2 hPa 0,0 l/m 1,3 km/h (1 Bft) N-NO 32 17,4 C 24,7 C 3,2 km/h (1 Bft)
20.06.2021 20:05 24,8 C 64 % 1007,3 hPa 0,0 l/m 1,6 km/h (1 Bft) N-NO 32 17,5 C 24,8 C 4,8 km/h (1 Bft)
20.06.2021 20:00 24,8 C 63 % 1007,3 hPa 0,0 l/m 0,4 km/h (0 Bft) NO 35 17,3 C 24,8 C 4,8 km/h (1 Bft)
20.06.2021 19:55 24,8 C 64 % 1007,3 hPa 0,0 l/m 0,2 km/h (0 Bft) N-NO 18 17,5 C 24,8 C 3,2 km/h (1 Bft)
20.06.2021 19:50 24,5 C 65 % 1007,2 hPa 0,0 l/m 0,2 km/h (0 Bft) N-NO 15 17,5 C 24,5 C 3,2 km/h (1 Bft)
20.06.2021 19:45 24,3 C 67 % 1007,3 hPa 0,0 l/m 0,1 km/h (0 Bft) N-NO 15 17,8 C 24,3 C 1,6 km/h (1 Bft)
20.06.2021 19:40 24,2 C 67 % 1007,2 hPa 0,0 l/m 1,8 km/h (1 Bft) N-NO 15 17,7 C 24,2 C 4,8 km/h (1 Bft)
20.06.2021 19:35 24,2 C 66 % 1007,2 hPa 0,0 l/m 3,0 km/h (1 Bft) N-NO 13 17,4 C 24,2 C 6,4 km/h (2 Bft)
20.06.2021 19:30 24,3 C 66 % 1007,2 hPa 0,0 l/m 2,8 km/h (1 Bft) N 360 17,5 C 24,3 C 4,8 km/h (1 Bft)
20.06.2021 19:25 24,3 C 65 % 1007,1 hPa 0,0 l/m 3,4 km/h (1 Bft) N-NW 348 17,3 C 24,3 C 6,4 km/h (2 Bft)
20.06.2021 19:20 24,5 C 65 % 1007,3 hPa 0,0 l/m 3,2 km/h (1 Bft) N-NW 340 17,5 C 24,5 C 8,0 km/h (2 Bft)
20.06.2021 19:15 24,6 C 66 % 1007,3 hPa 0,0 l/m 1,4 km/h (1 Bft) N 5 17,8 C 24,6 C 3,2 km/h (1 Bft)
20.06.2021 19:10 24,8 C 66 % 1007,5 hPa 0,0 l/m 3,0 km/h (1 Bft) N 5 18,0 C 24,8 C 6,4 km/h (2 Bft)
20.06.2021 19:05 25,1 C 65 % 1007,6 hPa 0,0 l/m 3,1 km/h (1 Bft) N 11 18,0 C 25,1 C 6,4 km/h (2 Bft)
20.06.2021 19:00 25,3 C 67 % 1007,6 hPa 0,0 l/m 0,0 km/h (0 Bft) NW 323 18,7 C 25,3 C 0,0 km/h (0 Bft)
20.06.2021 18:55 25,3 C 66 % 1007,7 hPa 0,0 l/m 0,6 km/h (0 Bft) NW 322 18,5 C 25,3 C 4,8 km/h (1 Bft)
20.06.2021 18:50 25,7 C 64 % 1007,7 hPa 0,0 l/m 2,2 km/h (1 Bft) NW 322 18,4 C 25,7 C 4,8 km/h (1 Bft)
20.06.2021 18:45 25,9 C 59 % 1007,8 hPa 0,0 l/m 0,5 km/h (0 Bft) N-NO 30 17,3 C 25,9 C 3,2 km/h (1 Bft)
20.06.2021 18:40 26,1 C 58 % 1007,9 hPa 0,0 l/m 0,6 km/h (0 Bft) N-NO 30 17,2 C 26,1 C 3,2 km/h (1 Bft)
20.06.2021 18:35 26,2 C 56 % 1007,9 hPa 0,0 l/m 1,4 km/h (1 Bft) N-NO 31 16,7 C 26,2 C 3,2 km/h (1 Bft)
20.06.2021 18:30 26,4 C 57 % 1008,0 hPa 0,0 l/m 1,6 km/h (1 Bft) N-NO 32 17,2 C 26,4 C 4,8 km/h (1 Bft)
20.06.2021 18:25 26,6 C 56 % 1008,0 hPa 0,0 l/m 2,2 km/h (1 Bft) N-NO 28 17,1 C 26,6 C 4,8 km/h (1 Bft)
20.06.2021 18:20 26,7 C 53 % 1008,2 hPa 0,0 l/m 1,2 km/h (1 Bft) N-NO 30 16,3 C 26,7 C 4,8 km/h (1 Bft)
20.06.2021 18:15 26,7 C 50 % 1008,4 hPa 0,0 l/m 2,3 km/h (1 Bft) N-NO 30 15,4 C 26,7 C 4,8 km/h (1 Bft)
20.06.2021 18:10 26,8 C 54 % 1008,5 hPa 0,0 l/m 1,9 km/h (1 Bft) N-NO 24 16,7 C 26,8 C 4,8 km/h (1 Bft)
20.06.2021 18:05 26,9 C 52 % 1008,5 hPa 0,0 l/m 1,5 km/h (1 Bft) NO 34 16,2 C 26,9 C 4,8 km/h (1 Bft)
20.06.2021 18:00 27,0 C 52 % 1008,4 hPa 0,0 l/m 1,4 km/h (1 Bft) NO 36 16,3 C 27,0 C 4,8 km/h (1 Bft)
20.06.2021 17:55 27,0 C 51 % 1008,4 hPa 0,0 l/m 2,1 km/h (1 Bft) NO 40 16,0 C 27,0 C 4,8 km/h (1 Bft)
20.06.2021 17:50 27,1 C 50 % 1008,3 hPa 0,0 l/m 3,1 km/h (1 Bft) N-NO 27 15,8 C 27,1 C 8,0 km/h (2 Bft)
20.06.2021 17:45 27,2 C 49 % 1008,4 hPa 0,0 l/m 2,3 km/h (1 Bft) O 80 15,5 C 27,2 C 6,4 km/h (2 Bft)
20.06.2021 17:40 27,3 C 51 % 1008,5 hPa 0,0 l/m 2,7 km/h (1 Bft) NO 46 16,3 C 27,3 C 8,0 km/h (2 Bft)
20.06.2021 17:35 27,4 C 50 % 1008,5 hPa 0,0 l/m 3,7 km/h (1 Bft) NW 325 16,0 C 27,4 C 8,0 km/h (2 Bft)
20.06.2021 17:30 27,4 C 51 % 1008,5 hPa 0,0 l/m 4,3 km/h (1 Bft) N-NO 13 16,3 C 27,4 C 9,7 km/h (2 Bft)
20.06.2021 17:25 27,4 C 50 % 1008,6 hPa 0,0 l/m 3,1 km/h (1 Bft) N-NO 24 16,0 C 27,4 C 6,4 km/h (2 Bft)
20.06.2021 17:20 27,6 C 50 % 1008,7 hPa 0,0 l/m 1,1 km/h (1 Bft) NO 42 16,2 C 27,6 C 4,8 km/h (1 Bft)
20.06.2021 17:15 27,8 C 50 % 1008,7 hPa 0,0 l/m 0,3 km/h (0 Bft) N-NW 328 16,4 C 27,8 C 3,2 km/h (1 Bft)
20.06.2021 17:10 27,7 C 47 % 1008,6 hPa 0,0 l/m 0,2 km/h (0 Bft) NW 312 15,3 C 27,7 C 4,8 km/h (1 Bft)
20.06.2021 17:05 27,6 C 46 % 1008,5 hPa 0,0 l/m 0,2 km/h (0 Bft) W-NW 300 14,9 C 27,6 C 3,2 km/h (1 Bft)
20.06.2021 17:00 27,7 C 46 % 1008,4 hPa 0,0 l/m 0,1 km/h (0 Bft) W-NW 299 15,0 C 27,7 C 1,6 km/h (1 Bft)
20.06.2021 16:55 27,8 C 46 % 1008,2 hPa 0,0 l/m 2,8 km/h (1 Bft) W-NW 294 15,1 C 27,8 C 6,4 km/h (2 Bft)
20.06.2021 16:50 28,1 C 48 % 1008,3 hPa 0,0 l/m 2,1 km/h (1 Bft) N 5 16,0 C 28,1 C 6,4 km/h (2 Bft)
20.06.2021 16:45 27,9 C 47 % 1008,4 hPa 0,0 l/m 0,8 km/h (0 Bft) W-NW 282 15,5 C 27,9 C 3,2 km/h (1 Bft)
20.06.2021 16:40 27,7 C 44 % 1008,4 hPa 0,0 l/m 1,4 km/h (1 Bft) W 281 14,3 C 27,7 C 4,8 km/h (1 Bft)
20.06.2021 16:35 27,6 C 47 % 1008,5 hPa 0,0 l/m 4,0 km/h (1 Bft) W 281 15,3 C 27,6 C 9,7 km/h (2 Bft)
20.06.2021 16:30 27,4 C 48 % 1008,6 hPa 0,0 l/m 4,5 km/h (1 Bft) W 265 15,4 C 27,4 C 9,7 km/h (2 Bft)
20.06.2021 16:25 27,2 C 47 % 1008,8 hPa 0,0 l/m 5,6 km/h (2 Bft) W 271 14,9 C 27,2 C 11,3 km/h (2 Bft)
20.06.2021 16:20 27,1 C 47 % 1008,9 hPa 0,0 l/m 4,8 km/h (1 Bft) W 277 14,8 C 27,1 C 9,7 km/h (2 Bft)
20.06.2021 16:15 27,2 C 47 % 1008,9 hPa 0,0 l/m 1,8 km/h (1 Bft) SW 223 14,9 C 27,2 C 6,4 km/h (2 Bft)
20.06.2021 16:10 27,6 C 47 % 1008,8 hPa 0,0 l/m 0,3 km/h (0 Bft) W 276 15,3 C 27,6 C 1,6 km/h (1 Bft)
20.06.2021 16:05 27,5 C 48 % 1009,0 hPa 0,0 l/m 2,3 km/h (1 Bft) W 277 15,5 C 27,5 C 8,0 km/h (2 Bft)
20.06.2021 16:00 27,6 C 49 % 1008,9 hPa 0,0 l/m 1,3 km/h (1 Bft) S-SW 212 15,9 C 27,6 C 4,8 km/h (1 Bft)
20.06.2021 15:55 27,5 C 49 % 1008,8 hPa 0,0 l/m 1,3 km/h (1 Bft) S-SW 202 15,8 C 27,5 C 4,8 km/h (1 Bft)
20.06.2021 15:50 27,4 C 48 % 1008,8 hPa 0,0 l/m 1,8 km/h (1 Bft) S-SW 210 15,4 C 27,4 C 4,8 km/h (1 Bft)
20.06.2021 15:45 27,4 C 49 % 1008,9 hPa 0,0 l/m 2,2 km/h (1 Bft) S-SW 207 15,7 C 27,4 C 6,4 km/h (2 Bft)
20.06.2021 15:40 27,4 C 49 % 1009,0 hPa 0,0 l/m 2,8 km/h (1 Bft) NW 321 15,7 C 27,4 C 6,4 km/h (2 Bft)
20.06.2021 15:35 27,4 C 50 % 1008,9 hPa 0,0 l/m 2,8 km/h (1 Bft) W-NW 286 16,0 C 27,4 C 9,7 km/h (2 Bft)
20.06.2021 15:30 27,6 C 47 % 1009,1 hPa 0,0 l/m 3,4 km/h (1 Bft) S-SW 211 15,3 C 27,6 C 8,0 km/h (2 Bft)
20.06.2021 15:25 27,5 C 48 % 1009,0 hPa 0,0 l/m 4,7 km/h (1 Bft) SW 221 15,5 C 27,5 C 11,3 km/h (2 Bft)
20.06.2021 15:20 27,4 C 50 % 1009,0 hPa 0,0 l/m 3,5 km/h (1 Bft) SW 217 16,0 C 27,4 C 11,3 km/h (2 Bft)
20.06.2021 15:15 27,3 C 48 % 1009,0 hPa 0,0 l/m 3,6 km/h (1 Bft) SW 228 15,3 C 27,3 C 9,7 km/h (2 Bft)
20.06.2021 15:10 27,2 C 53 % 1009,2 hPa 0,0 l/m 1,3 km/h (1 Bft) W 277 16,8 C 27,2 C 11,3 km/h (2 Bft)
20.06.2021 15:05 26,9 C 50 % 1009,2 hPa 0,0 l/m 2,0 km/h (1 Bft) W-SW 244 15,6 C 26,9 C 8,0 km/h (2 Bft)
20.06.2021 15:00 26,7 C 50 % 1009,2 hPa 0,0 l/m 3,5 km/h (1 Bft) W 267 15,4 C 26,7 C 6,4 km/h (2 Bft)
20.06.2021 14:55 26,8 C 49 % 1009,3 hPa 0,0 l/m 4,2 km/h (1 Bft) SW 220 15,2 C 26,8 C 14,5 km/h (3 Bft)
20.06.2021 14:50 26,6 C 52 % 1009,4 hPa 0,0 l/m 1,4 km/h (1 Bft) W-NW 282 15,9 C 26,6 C 6,4 km/h (2 Bft)
20.06.2021 14:45 26,4 C 52 % 1009,6 hPa 0,0 l/m 1,6 km/h (1 Bft) S 186 15,7 C 26,4 C 6,4 km/h (2 Bft)
20.06.2021 14:40 26,4 C 51 % 1009,5 hPa 0,0 l/m 1,3 km/h (1 Bft) W 269 15,4 C 26,4 C 9,7 km/h (2 Bft)
20.06.2021 14:35 26,3 C 52 % 1009,7 hPa 0,0 l/m 4,1 km/h (1 Bft) S-SW 201 15,6 C 26,3 C 9,7 km/h (2 Bft)
20.06.2021 14:30 26,2 C 53 % 1009,5 hPa 0,0 l/m 3,7 km/h (1 Bft) W-SW 242 15,8 C 26,2 C 6,4 km/h (2 Bft)
20.06.2021 14:25 26,1 C 54 % 1009,6 hPa 0,0 l/m 4,5 km/h (1 Bft) S 190 16,0 C 26,1 C 11,3 km/h (2 Bft)
20.06.2021 14:20 25,9 C 54 % 1009,6 hPa 0,0 l/m 5,6 km/h (2 Bft) W 267 15,9 C 25,9 C 11,3 km/h (2 Bft)
20.06.2021 14:15 25,8 C 56 % 1009,7 hPa 0,0 l/m 4,8 km/h (1 Bft) SW 215 16,3 C 25,8 C 12,9 km/h (3 Bft)
20.06.2021 14:10 25,7 C 55 % 1009,6 hPa 0,0 l/m 4,3 km/h (1 Bft) SW 215 16,0 C 25,7 C 11,3 km/h (2 Bft)
20.06.2021 14:05 25,4 C 55 % 1009,6 hPa 0,0 l/m 4,4 km/h (1 Bft) SW 233 15,7 C 25,4 C 9,7 km/h (2 Bft)
20.06.2021 14:00 25,0 C 60 % 1009,7 hPa 0,0 l/m 4,0 km/h (1 Bft) W-NW 287 16,7 C 25,0 C 9,7 km/h (2 Bft)
20.06.2021 13:55 24,7 C 60 % 1009,7 hPa 0,0 l/m 3,6 km/h (1 Bft) W-SW 245 16,4 C 24,7 C 8,0 km/h (2 Bft)
20.06.2021 13:50 24,6 C 59 % 1009,7 hPa 0,0 l/m 3,1 km/h (1 Bft) S 182 16,0 C 24,6 C 6,4 km/h (2 Bft)
20.06.2021 13:45 24,6 C 58 % 1009,4 hPa 0,0 l/m 2,5 km/h (1 Bft) S-SW 205 15,8 C 24,6 C 6,4 km/h (2 Bft)
20.06.2021 13:40 24,7 C 57 % 1009,2 hPa 0,0 l/m 4,6 km/h (1 Bft) S-SW 194 15,6 C 24,7 C 8,0 km/h (2 Bft)
20.06.2021 13:35 24,8 C 58 % 1009,5 hPa 0,0 l/m 4,7 km/h (1 Bft) S-SW 194 16,0 C 24,8 C 9,7 km/h (2 Bft)
20.06.2021 13:30 24,9 C 57 % 1009,6 hPa 0,0 l/m 4,6 km/h (1 Bft) SO 141 15,8 C 24,9 C 11,3 km/h (2 Bft)
20.06.2021 13:25 24,9 C 56 % 1009,5 hPa 0,0 l/m 4,5 km/h (1 Bft) SW 234 15,5 C 24,9 C 9,7 km/h (2 Bft)
20.06.2021 13:20 25,0 C 57 % 1009,8 hPa 0,0 l/m 5,1 km/h (1 Bft) S-SW 213 15,9 C 25,0 C 12,9 km/h (3 Bft)
20.06.2021 13:15 25,2 C 58 % 1009,8 hPa 0,0 l/m 5,6 km/h (2 Bft) SW 229 16,3 C 25,2 C 11,3 km/h (2 Bft)
20.06.2021 13:10 25,2 C 58 % 1010,1 hPa 0,0 l/m 4,4 km/h (1 Bft) S-SW 207 16,3 C 25,2 C 14,5 km/h (3 Bft)
20.06.2021 13:05 25,1 C 59 % 1010,0 hPa 0,0 l/m 2,8 km/h (1 Bft) W-SW 246 16,5 C 25,1 C 6,4 km/h (2 Bft)
20.06.2021 13:00 24,9 C 58 % 1010,2 hPa 0,0 l/m 4,4 km/h (1 Bft) W 263 16,1 C 24,9 C 11,3 km/h (2 Bft)
20.06.2021 12:55 24,9 C 57 % 1010,2 hPa 0,0 l/m 5,7 km/h (2 Bft) SW 215 15,8 C 24,9 C 14,5 km/h (3 Bft)
20.06.2021 12:50 24,9 C 57 % 1010,2 hPa 0,0 l/m 7,2 km/h (2 Bft) W 265 15,8 C 24,7 C 16,1 km/h (3 Bft)
20.06.2021 12:45 24,9 C 58 % 1010,3 hPa 0,0 l/m 7,4 km/h (2 Bft) SW 232 16,1 C 24,6 C 17,7 km/h (3 Bft)
20.06.2021 12:40 24,9 C 57 % 1010,3 hPa 0,0 l/m 6,6 km/h (2 Bft) SW 217 15,8 C 24,9 C 14,5 km/h (3 Bft)
20.06.2021 12:35 25,0 C 55 % 1010,4 hPa 0,0 l/m 8,4 km/h (2 Bft) S-SW 212 15,3 C 24,5 C 17,7 km/h (3 Bft)
20.06.2021 12:30 25,2 C 57 % 1010,5 hPa 0,0 l/m 10,5 km/h (2 Bft) S-SW 197 16,1 C 24,3 C 24,1 km/h (4 Bft)
20.06.2021 12:25 25,3 C 56 % 1010,6 hPa 0,0 l/m 10,6 km/h (2 Bft) W 262 15,9 C 24,4 C 20,9 km/h (4 Bft)
20.06.2021 12:20 25,2 C 59 % 1010,7 hPa 0,0 l/m 5,0 km/h (1 Bft) W-SW 252 16,6 C 25,2 C 12,9 km/h (3 Bft)
20.06.2021 12:15 24,8 C 58 % 1010,6 hPa 0,0 l/m 8,5 km/h (2 Bft) S-SW 211 16,0 C 24,3 C 19,3 km/h (3 Bft)
20.06.2021 12:10 24,6 C 59 % 1010,6 hPa 0,0 l/m 7,5 km/h (2 Bft) W-SW 238 16,0 C 24,3 C 14,5 km/h (3 Bft)
20.06.2021 12:05 24,4 C 57 % 1010,6 hPa 0,0 l/m 9,1 km/h (2 Bft) W-NW 287 15,3 C 23,7 C 19,3 km/h (3 Bft)
20.06.2021 12:00 24,6 C 58 % 1010,6 hPa 0,0 l/m 7,4 km/h (2 Bft) W-SW 239 15,8 C 24,3 C 14,5 km/h (3 Bft)
20.06.2021 11:55 24,5 C 60 % 1010,8 hPa 0,0 l/m 7,5 km/h (2 Bft) W 275 16,2 C 24,2 C 12,9 km/h (3 Bft)
20.06.2021 11:50 24,4 C 61 % 1010,8 hPa 0,0 l/m 8,4 km/h (2 Bft) S-SW 200 16,4 C 23,9 C 16,1 km/h (3 Bft)
20.06.2021 11:45 24,3 C 61 % 1010,7 hPa 0,0 l/m 7,1 km/h (2 Bft) W-SW 254 16,3 C 24,1 C 16,1 km/h (3 Bft)
20.06.2021 11:40 24,3 C 59 % 1010,8 hPa 0,0 l/m 6,4 km/h (2 Bft) W-NW 294 15,8 C 24,3 C 12,9 km/h (3 Bft)
20.06.2021 11:35 24,3 C 59 % 1010,7 hPa 0,0 l/m 6,8 km/h (2 Bft) W-SW 252 15,8 C 24,2 C 16,1 km/h (3 Bft)
20.06.2021 11:30 23,9 C 63 % 1010,6 hPa 0,0 l/m 5,8 km/h (2 Bft) SW 236 16,4 C 23,9 C 11,3 km/h (2 Bft)
20.06.2021 11:25 23,8 C 61 % 1010,6 hPa 0,0 l/m 5,4 km/h (2 Bft) W 259 15,8 C 23,8 C 16,1 km/h (3 Bft)
20.06.2021 11:20 23,7 C 63 % 1010,5 hPa 0,0 l/m 6,4 km/h (2 Bft) S-SW 204 16,2 C 23,7 C 14,5 km/h (3 Bft)
20.06.2021 11:15 23,8 C 59 % 1010,4 hPa 0,0 l/m 7,1 km/h (2 Bft) W-SW 245 15,3 C 23,6 C 17,7 km/h (3 Bft)
20.06.2021 11:10 24,1 C 60 % 1010,5 hPa 0,0 l/m 7,7 km/h (2 Bft) W-SW 238 15,8 C 23,7 C 19,3 km/h (3 Bft)
20.06.2021 11:05 24,3 C 59 % 1010,4 hPa 0,0 l/m 8,7 km/h (2 Bft) SW 236 15,8 C 23,7 C 20,9 km/h (4 Bft)
20.06.2021 11:00 24,3 C 63 % 1010,5 hPa 0,0 l/m 5,2 km/h (1 Bft) W-SW 244 16,8 C 24,3 C 12,9 km/h (3 Bft)
20.06.2021 10:55 24,4 C 61 % 1010,6 hPa 0,0 l/m 7,1 km/h (2 Bft) W 259 16,4 C 24,2 C 16,1 km/h (3 Bft)
20.06.2021 10:50 24,2 C 61 % 1010,6 hPa 0,0 l/m 6,3 km/h (2 Bft) W 279 16,2 C 24,2 C 16,1 km/h (3 Bft)
20.06.2021 10:45 24,1 C 62 % 1010,5 hPa 0,0 l/m 6,4 km/h (2 Bft) W-SW 251 16,4 C 24,1 C 19,3 km/h (3 Bft)
20.06.2021 10:40 24,1 C 63 % 1010,5 hPa 0,0 l/m 6,6 km/h (2 Bft) W-SW 246 16,6 C 24,1 C 14,5 km/h (3 Bft)
20.06.2021 10:35 23,8 C 64 % 1010,4 hPa 0,0 l/m 5,8 km/h (2 Bft) W 259 16,6 C 23,8 C 12,9 km/h (3 Bft)
20.06.2021 10:30 23,6 C 66 % 1010,4 hPa 0,0 l/m 7,7 km/h (2 Bft) SW 232 16,9 C 23,2 C 17,7 km/h (3 Bft)
20.06.2021 10:25 23,4 C 66 % 1010,4 hPa 0,0 l/m 7,8 km/h (2 Bft) W-SW 250 16,7 C 23,0 C 20,9 km/h (4 Bft)
20.06.2021 10:20 23,3 C 67 % 1010,4 hPa 0,0 l/m 7,7 km/h (2 Bft) W 269 16,8 C 22,9 C 16,1 km/h (3 Bft)
20.06.2021 10:15 23,2 C 65 % 1010,5 hPa 0,0 l/m 10,6 km/h (2 Bft) W 269 16,2 C 22,0 C 19,3 km/h (3 Bft)
20.06.2021 10:10 23,1 C 65 % 1010,6 hPa 0,0 l/m 7,0 km/h (2 Bft) W-NW 284 16,2 C 22,9 C 16,1 km/h (3 Bft)
20.06.2021 10:05 22,9 C 65 % 1010,6 hPa 0,0 l/m 10,3 km/h (2 Bft) SW 219 16,0 C 21,8 C 19,3 km/h (3 Bft)
20.06.2021 10:00 22,9 C 65 % 1010,6 hPa 0,0 l/m 12,5 km/h (2 Bft) W 267 16,0 C 21,3 C 20,9 km/h (4 Bft)
20.06.2021 09:55 22,9 C 64 % 1010,7 hPa 0,0 l/m 8,5 km/h (2 Bft) W-SW 237 15,7 C 22,2 C 20,9 km/h (4 Bft)
20.06.2021 09:50 22,7 C 65 % 1010,7 hPa 0,0 l/m 10,8 km/h (2 Bft) SW 232 15,8 C 21,4 C 25,7 km/h (4 Bft)
20.06.2021 09:45 22,7 C 64 % 1010,7 hPa 0,0 l/m 8,5 km/h (2 Bft) SW 226 15,5 C 22,0 C 19,3 km/h (3 Bft)
20.06.2021 09:40 22,7 C 68 % 1010,5 hPa 0,0 l/m 6,6 km/h (2 Bft) W-SW 240 16,5 C 22,6 C 14,5 km/h (3 Bft)
20.06.2021 09:35 22,5 C 68 % 1010,6 hPa 0,0 l/m 9,4 km/h (2 Bft) W-NW 293 16,3 C 21,6 C 20,9 km/h (4 Bft)
20.06.2021 09:30 22,5 C 67 % 1010,7 hPa 0,0 l/m 9,5 km/h (2 Bft) W-SW 258 16,1 C 21,5 C 20,9 km/h (4 Bft)
20.06.2021 09:25 22,5 C 70 % 1010,7 hPa 0,0 l/m 6,9 km/h (2 Bft) W-SW 240 16,7 C 22,3 C 14,5 km/h (3 Bft)
20.06.2021 09:20 22,4 C 72 % 1010,8 hPa 0,0 l/m 3,9 km/h (1 Bft) SW 219 17,1 C 22,4 C 9,7 km/h (2 Bft)
20.06.2021 09:15 22,2 C 72 % 1010,7 hPa 0,0 l/m 6,1 km/h (2 Bft) W-SW 246 16,9 C 22,2 C 14,5 km/h (3 Bft)
20.06.2021 09:10 22,0 C 74 % 1010,7 hPa 0,0 l/m 6,2 km/h (2 Bft) W-SW 241 17,1 C 22,0 C 16,1 km/h (3 Bft)
20.06.2021 09:05 21,9 C 73 % 1010,8 hPa 0,0 l/m 7,4 km/h (2 Bft) SW 229 16,8 C 21,5 C 20,9 km/h (4 Bft)
20.06.2021 09:00 21,8 C 72 % 1010,5 hPa 0,0 l/m 7,9 km/h (2 Bft) W-NW 286 16,5 C 21,3 C 14,5 km/h (3 Bft)
20.06.2021 08:55 21,8 C 74 % 1010,5 hPa 0,0 l/m 5,4 km/h (2 Bft) S 186 17,0 C 21,8 C 12,9 km/h (3 Bft)
20.06.2021 08:50 21,6 C 75 % 1010,5 hPa 0,0 l/m 5,6 km/h (2 Bft) W-SW 248 17,0 C 21,6 C 11,3 km/h (2 Bft)
20.06.2021 08:45 21,4 C 75 % 1010,4 hPa 0,0 l/m 4,8 km/h (1 Bft) SW 233 16,8 C 21,4 C 14,5 km/h (3 Bft)
20.06.2021 08:40 21,4 C 74 % 1010,4 hPa 0,0 l/m 7,5 km/h (2 Bft) NW 306 16,6 C 21,0 C 19,3 km/h (3 Bft)
20.06.2021 08:35 21,3 C 74 % 1010,4 hPa 0,0 l/m 6,7 km/h (2 Bft) SW 229 16,5 C 21,2 C 17,7 km/h (3 Bft)
20.06.2021 08:30 21,3 C 75 % 1010,3 hPa 0,0 l/m 6,7 km/h (2 Bft) SW 219 16,7 C 21,2 C 14,5 km/h (3 Bft)
20.06.2021 08:25 21,3 C 76 % 1010,3 hPa 0,0 l/m 5,2 km/h (1 Bft) W 263 16,9 C 21,3 C 12,9 km/h (3 Bft)
20.06.2021 08:20 21,2 C 76 % 1010,3 hPa 0,0 l/m 8,4 km/h (2 Bft) SW 228 16,8 C 20,5 C 17,7 km/h (3 Bft)
20.06.2021 08:15 21,2 C 77 % 1010,1 hPa 0,0 l/m 6,4 km/h (2 Bft) W-SW 250 17,0 C 21,2 C 16,1 km/h (3 Bft)
20.06.2021 08:10 21,1 C 77 % 1010,2 hPa 0,0 l/m 4,3 km/h (1 Bft) W-SW 249 16,9 C 21,1 C 12,9 km/h (3 Bft)
20.06.2021 08:05 21,0 C 78 % 1010,3 hPa 0,0 l/m 4,2 km/h (1 Bft) W 259 17,0 C 21,0 C 12,9 km/h (3 Bft)
20.06.2021 08:00 20,9 C 78 % 1010,3 hPa 0,0 l/m 6,2 km/h (2 Bft) SW 216 16,9 C 20,9 C 16,1 km/h (3 Bft)
20.06.2021 07:55 20,7 C 79 % 1010,2 hPa 0,0 l/m 4,7 km/h (1 Bft) W 269 16,9 C 20,7 C 14,5 km/h (3 Bft)
20.06.2021 07:50 20,6 C 79 % 1010,2 hPa 0,0 l/m 5,4 km/h (2 Bft) W-SW 256 16,8 C 20,6 C 11,3 km/h (2 Bft)
20.06.2021 07:45 20,5 C 79 % 1010,2 hPa 0,0 l/m 6,3 km/h (2 Bft) W-SW 245 16,7 C 20,5 C 16,1 km/h (3 Bft)
20.06.2021 07:40 20,4 C 80 % 1010,1 hPa 0,0 l/m 8,2 km/h (2 Bft) W-SW 240 16,8 C 19,7 C 19,3 km/h (3 Bft)
20.06.2021 07:35 20,3 C 79 % 1010,3 hPa 0,0 l/m 7,5 km/h (2 Bft) W-SW 258 16,5 C 19,9 C 19,3 km/h (3 Bft)
20.06.2021 07:30 20,2 C 81 % 1010,2 hPa 0,0 l/m 6,3 km/h (2 Bft) SW 235 16,8 C 20,2 C 17,7 km/h (3 Bft)
20.06.2021 07:25 20,1 C 81 % 1010,1 hPa 0,0 l/m 5,0 km/h (1 Bft) S 178 16,7 C 20,1 C 14,5 km/h (3 Bft)
20.06.2021 07:20 19,9 C 81 % 1010,0 hPa 0,0 l/m 7,8 km/h (2 Bft) W-SW 242 16,5 C 19,3 C 17,7 km/h (3 Bft)
20.06.2021 07:15 19,8 C 82 % 1009,7 hPa 0,0 l/m 6,4 km/h (2 Bft) SW 223 16,6 C 19,8 C 22,5 km/h (4 Bft)
20.06.2021 07:10 19,7 C 83 % 1009,7 hPa 0,0 l/m 7,5 km/h (2 Bft) W-SW 253 16,7 C 19,2 C 17,7 km/h (3 Bft)
20.06.2021 07:05 19,6 C 83 % 1009,6 hPa 0,0 l/m 9,8 km/h (2 Bft) SW 226 16,6 C 18,3 C 20,9 km/h (4 Bft)
20.06.2021 07:00 19,6 C 83 % 1009,8 hPa 0,0 l/m 8,7 km/h (2 Bft) W 263 16,6 C 18,7 C 17,7 km/h (3 Bft)
20.06.2021 06:55 19,4 C 83 % 1009,7 hPa 0,0 l/m 9,2 km/h (2 Bft) W 273 16,4 C 18,3 C 17,7 km/h (3 Bft)
20.06.2021 06:50 19,3 C 84 % 1009,8 hPa 0,0 l/m 5,3 km/h (1 Bft) S-SW 200 16,5 C 19,3 C 16,1 km/h (3 Bft)
20.06.2021 06:45 19,2 C 84 % 1009,8 hPa 0,0 l/m 5,7 km/h (2 Bft) SW 232 16,4 C 19,2 C 12,9 km/h (3 Bft)
20.06.2021 06:40 19,1 C 85 % 1009,9 hPa 0,0 l/m 5,6 km/h (2 Bft) SW 215 16,5 C 19,1 C 11,3 km/h (2 Bft)
20.06.2021 06:35 19,1 C 85 % 1009,9 hPa 0,0 l/m 3,2 km/h (1 Bft) W-SW 248 16,5 C 19,1 C 12,9 km/h (3 Bft)
20.06.2021 06:30 19,1 C 85 % 1010,0 hPa 0,0 l/m 3,9 km/h (1 Bft) W 269 16,5 C 19,1 C 9,7 km/h (2 Bft)
20.06.2021 06:25 19,1 C 85 % 1009,9 hPa 0,0 l/m 1,8 km/h (1 Bft) W-SW 255 16,5 C 19,1 C 6,4 km/h (2 Bft)
20.06.2021 06:20 19,1 C 85 % 1009,9 hPa 0,0 l/m 1,3 km/h (1 Bft) SW 227 16,5 C 19,1 C 4,8 km/h (1 Bft)
20.06.2021 06:15 19,1 C 85 % 1010,0 hPa 0,0 l/m 2,6 km/h (1 Bft) W 279 16,5 C 19,1 C 9,7 km/h (2 Bft)
20.06.2021 06:10 19,1 C 85 % 1010,0 hPa 0,0 l/m 2,5 km/h (1 Bft) S 170 16,5 C 19,1 C 9,7 km/h (2 Bft)
20.06.2021 06:05 19,2 C 85 % 1009,9 hPa 0,0 l/m 1,7 km/h (1 Bft) SW 217 16,6 C 19,2 C 9,7 km/h (2 Bft)
20.06.2021 06:00 19,3 C 85 % 1009,9 hPa 0,0 l/m 2,6 km/h (1 Bft) W-SW 242 16,7 C 19,3 C 6,4 km/h (2 Bft)
20.06.2021 05:55 19,4 C 84 % 1009,8 hPa 0,0 l/m 4,9 km/h (1 Bft) W 269 16,6 C 19,4 C 14,5 km/h (3 Bft)
20.06.2021 05:50 19,6 C 85 % 1009,7 hPa 0,0 l/m 2,9 km/h (1 Bft) SW 229 17,0 C 19,6 C 8,0 km/h (2 Bft)
20.06.2021 05:45 19,7 C 85 % 1009,7 hPa 0,0 l/m 5,3 km/h (1 Bft) SW 236 17,1 C 19,7 C 17,7 km/h (3 Bft)
20.06.2021 05:40 19,6 C 85 % 1009,7 hPa 0,0 l/m 5,7 km/h (2 Bft) W-SW 244 17,0 C 19,6 C 14,5 km/h (3 Bft)
20.06.2021 05:35 19,7 C 86 % 1009,7 hPa 0,0 l/m 6,0 km/h (2 Bft) W 266 17,3 C 19,7 C 16,1 km/h (3 Bft)
20.06.2021 05:30 19,6 C 87 % 1009,6 hPa 0,0 l/m 3,5 km/h (1 Bft) W-NW 283 17,4 C 19,6 C 9,7 km/h (2 Bft)
20.06.2021 05:25 19,7 C 87 % 1009,6 hPa 0,0 l/m 2,9 km/h (1 Bft) W 265 17,5 C 19,7 C 11,3 km/h (2 Bft)
20.06.2021 05:20 19,8 C 87 % 1009,5 hPa 0,0 l/m 2,0 km/h (1 Bft) W-NW 286 17,6 C 19,8 C 4,8 km/h (1 Bft)
20.06.2021 05:15 20,0 C 87 % 1009,4 hPa 0,0 l/m 0,2 km/h (0 Bft) W-NW 297 17,8 C 20,0 C 4,8 km/h (1 Bft)
20.06.2021 05:10 20,2 C 87 % 1009,3 hPa 0,0 l/m 0,0 km/h (0 Bft) SW 236 18,0 C 20,2 C 0,0 km/h (0 Bft)
20.06.2021 05:05 20,4 C 86 % 1009,1 hPa 0,0 l/m 0,0 km/h (0 Bft) SW 232 18,0 C 20,4 C 0,0 km/h (0 Bft)
20.06.2021 05:00 20,5 C 86 % 1008,9 hPa 0,0 l/m 0,0 km/h (0 Bft) SW 232 18,1 C 20,5 C 0,0 km/h (0 Bft)
20.06.2021 04:55 20,5 C 86 % 1008,8 hPa 0,0 l/m 2,1 km/h (1 Bft) SW 232 18,1 C 20,5 C 8,0 km/h (2 Bft)
20.06.2021 04:50 20,6 C 86 % 1008,8 hPa 0,0 l/m 1,9 km/h (1 Bft) W-SW 247 18,2 C 20,6 C 4,8 km/h (1 Bft)
20.06.2021 04:45 20,6 C 86 % 1008,8 hPa 0,0 l/m 4,1 km/h (1 Bft) W-SW 254 18,2 C 20,6 C 9,7 km/h (2 Bft)
20.06.2021 04:40 20,7 C 86 % 1008,7 hPa 0,0 l/m 3,8 km/h (1 Bft) W-SW 244 18,3 C 20,7 C 8,0 km/h (2 Bft)
20.06.2021 04:35 20,8 C 87 % 1008,4 hPa 0,0 l/m 5,4 km/h (2 Bft) W 261 18,6 C 20,8 C 17,7 km/h (3 Bft)
20.06.2021 04:30 20,7 C 87 % 1008,2 hPa 0,0 l/m 8,5 km/h (2 Bft) S-SW 204 18,5 C 19,9 C 17,7 km/h (3 Bft)
20.06.2021 04:25 20,7 C 88 % 1008,3 hPa 0,0 l/m 7,1 km/h (2 Bft) SW 229 18,6 C 20,4 C 17,7 km/h (3 Bft)
20.06.2021 04:20 20,6 C 88 % 1008,2 hPa 0,0 l/m 9,0 km/h (2 Bft) NW 326 18,5 C 19,6 C 17,7 km/h (3 Bft)
20.06.2021 04:15 20,6 C 88 % 1008,0 hPa 0,2 l/m 7,6 km/h (2 Bft) W-SW 242 18,5 C 20,1 C 20,9 km/h (4 Bft)
20.06.2021 04:10 20,6 C 88 % 1007,3 hPa 0,0 l/m 6,3 km/h (2 Bft) S-SO 156 18,5 C 20,6 C 16,1 km/h (3 Bft)
20.06.2021 04:05 20,6 C 88 % 1007,3 hPa 0,0 l/m 7,2 km/h (2 Bft) S-SW 203 18,5 C 20,3 C 14,5 km/h (3 Bft)
20.06.2021 04:00 20,6 C 88 % 1007,2 hPa 0,0 l/m 8,5 km/h (2 Bft) S-SO 150 18,5 C 19,8 C 17,7 km/h (3 Bft)
20.06.2021 03:55 20,5 C 89 % 1007,1 hPa 0,0 l/m 9,7 km/h (2 Bft) S-SW 213 18,6 C 19,3 C 19,3 km/h (3 Bft)
20.06.2021 03:50 20,4 C 89 % 1007,1 hPa 0,0 l/m 8,5 km/h (2 Bft) SW 217 18,5 C 19,6 C 20,9 km/h (4 Bft)
20.06.2021 03:45 20,3 C 89 % 1007,2 hPa 0,0 l/m 8,1 km/h (2 Bft) W-SW 253 18,4 C 19,6 C 16,1 km/h (3 Bft)
20.06.2021 03:40 20,2 C 90 % 1007,1 hPa 0,0 l/m 7,7 km/h (2 Bft) S 182 18,5 C 19,7 C 14,5 km/h (3 Bft)
20.06.2021 03:35 20,1 C 90 % 1007,1 hPa 0,0 l/m 9,2 km/h (2 Bft) SW 232 18,4 C 19,0 C 17,7 km/h (3 Bft)
20.06.2021 03:30 19,9 C 91 % 1007,1 hPa 0,0 l/m 8,4 km/h (2 Bft) W-SW 239 18,4 C 19,1 C 20,9 km/h (4 Bft)
20.06.2021 03:25 19,8 C 92 % 1007,2 hPa 0,0 l/m 8,6 km/h (2 Bft) SW 215 18,5 C 18,9 C 19,3 km/h (3 Bft)
20.06.2021 03:20 19,6 C 93 % 1007,2 hPa 0,0 l/m 6,1 km/h (2 Bft) S 190 18,4 C 19,6 C 16,1 km/h (3 Bft)
20.06.2021 03:15 19,5 C 93 % 1007,2 hPa 0,0 l/m 4,8 km/h (1 Bft) W-SW 255 18,3 C 19,5 C 11,3 km/h (2 Bft)
20.06.2021 03:10 19,4 C 93 % 1007,4 hPa 0,0 l/m 3,4 km/h (1 Bft) SW 225 18,2 C 19,4 C 9,7 km/h (2 Bft)
20.06.2021 03:05 19,3 C 93 % 1007,7 hPa 0,0 l/m 3,3 km/h (1 Bft) SW 225 18,1 C 19,3 C 9,7 km/h (2 Bft)
20.06.2021 03:00 19,4 C 94 % 1007,8 hPa 0,0 l/m 2,7 km/h (1 Bft) W-SW 242 18,4 C 19,4 C 8,0 km/h (2 Bft)
20.06.2021 02:55 19,4 C 94 % 1007,6 hPa 0,0 l/m 0,5 km/h (0 Bft) S-SW 199 18,4 C 19,4 C 4,8 km/h (1 Bft)
20.06.2021 02:50 19,5 C 93 % 1007,8 hPa 0,0 l/m 2,4 km/h (1 Bft) S-SW 200 18,3 C 19,5 C 6,4 km/h (2 Bft)
20.06.2021 02:45 19,6 C 94 % 1008,3 hPa 0,0 l/m 2,2 km/h (1 Bft) S 186 18,6 C 19,6 C 6,4 km/h (2 Bft)
20.06.2021 02:40 19,7 C 94 % 1008,6 hPa 0,0 l/m 3,1 km/h (1 Bft) O-SO 109 18,7 C 19,7 C 9,7 km/h (2 Bft)
20.06.2021 02:35 19,7 C 94 % 1008,7 hPa 0,0 l/m 3,1 km/h (1 Bft) O 81 18,7 C 19,7 C 11,3 km/h (2 Bft)
20.06.2021 02:30 19,7 C 94 % 1008,4 hPa 0,0 l/m 3,6 km/h (1 Bft) SO 142 18,7 C 19,7 C 9,7 km/h (2 Bft)
20.06.2021 02:25 19,7 C 94 % 1008,3 hPa 0,0 l/m 2,6 km/h (1 Bft) O-SO 103 18,7 C 19,7 C 6,4 km/h (2 Bft)
20.06.2021 02:20 19,7 C 94 % 1008,3 hPa 0,0 l/m 1,5 km/h (1 Bft) O-SO 107 18,7 C 19,7 C 4,8 km/h (1 Bft)
20.06.2021 02:15 19,8 C 94 % 1008,4 hPa 0,0 l/m 2,0 km/h (1 Bft) O-SO 115 18,8 C 19,8 C 6,4 km/h (2 Bft)
20.06.2021 02:10 19,8 C 94 % 1008,4 hPa 0,0 l/m 1,3 km/h (1 Bft) O-SO 119 18,8 C 19,8 C 9,7 km/h (2 Bft)
20.06.2021 02:05 19,9 C 94 % 1008,3 hPa 0,0 l/m 2,1 km/h (1 Bft) O-SO 120 18,9 C 19,9 C 4,8 km/h (1 Bft)
20.06.2021 02:00 19,9 C 94 % 1008,5 hPa 0,0 l/m 0,8 km/h (0 Bft) O 101 18,9 C 19,9 C 6,4 km/h (2 Bft)
20.06.2021 01:55 20,0 C 94 % 1008,4 hPa 0,0 l/m 0,0 km/h (0 Bft) SO 133 19,0 C 20,0 C 1,6 km/h (1 Bft)
20.06.2021 01:50 20,0 C 95 % 1008,0 hPa 0,0 l/m 1,7 km/h (1 Bft) SO 133 19,2 C 20,0 C 6,4 km/h (2 Bft)
20.06.2021 01:45 19,9 C 95 % 1008,2 hPa 0,0 l/m 2,5 km/h (1 Bft) O-SO 105 19,1 C 19,9 C 6,4 km/h (2 Bft)
20.06.2021 01:40 19,9 C 94 % 1008,2 hPa 0,0 l/m 2,6 km/h (1 Bft) O-SO 107 18,9 C 19,9 C 6,4 km/h (2 Bft)
20.06.2021 01:35 19,9 C 94 % 1008,0 hPa 0,0 l/m 2,2 km/h (1 Bft) O-SO 107 18,9 C 19,9 C 6,4 km/h (2 Bft)
20.06.2021 01:30 19,9 C 94 % 1007,6 hPa 0,0 l/m 0,9 km/h (0 Bft) O 93 18,9 C 19,9 C 3,2 km/h (1 Bft)
20.06.2021 01:25 19,9 C 94 % 1007,3 hPa 0,0 l/m 2,1 km/h (1 Bft) N 11 18,9 C 19,9 C 6,4 km/h (2 Bft)
20.06.2021 01:20 19,9 C 94 % 1007,8 hPa 0,2 l/m 1,2 km/h (1 Bft) N-NO 30 18,9 C 19,9 C 4,8 km/h (1 Bft)
20.06.2021 01:15 19,9 C 94 % 1008,4 hPa 0,2 l/m 1,6 km/h (1 Bft) NO 45 18,9 C 19,9 C 4,8 km/h (1 Bft)
20.06.2021 01:10 19,9 C 94 % 1009,1 hPa 0,6 l/m 2,9 km/h (1 Bft) O 81 18,9 C 19,9 C 8,0 km/h (2 Bft)
20.06.2021 01:05 19,9 C 93 % 1010,3 hPa 0,8 l/m 5,3 km/h (1 Bft) W 263 18,7 C 19,9 C 12,9 km/h (3 Bft)
20.06.2021 01:00 20,0 C 93 % 1010,2 hPa 1,6 l/m 9,3 km/h (2 Bft) W 277 18,8 C 18,9 C 19,3 km/h (3 Bft)
_ Min-Zeit 06:20 16:40 00:50 - 01:55 - - 16:40 06:55 05:00
Minimum _ 19,0 C 44 % 1005,2 hPa - 0,0 km/h (0 Bft) - - 14,3 C 18,3 C 0,0 km/h (0 Bft)
_ Max-Zeit 16:50 01:45 09:05 01:00 10:00 - - 01:50 16:50 09:50
Maximum _ 28,1 C 95 % 1010,8 hPa 1,6 l/m 12,5 km/h
W (2 Bft)
- - 19,2 C 28,1 C 25,7 km/h
W (4 Bft)
Durchschnitt _ 22,8 C 72 % 1008,7 hPa #4,0 l/m 4,0 km/h (1 Bft) W - 17,1 C 22,6 C 9,8 km/h (2 Bft)
www.klaudt.eu